Airfield :
LOGIN :

Register | Disclaimer

   EN    FR    IT 

 










Legend :    VFR   Marginal VFR   IFR   Intensive IFR   Very Intensive IFR
Visi :
Ceiling :
>= 8 km
>= 3000ft
5 to 8 km
1000 to 3000 ft
1500m to 5 km
500 to 1000 ft
800 to 1500m
200 to 500 ft
< 800m
< 200 ft
Symbols :   Thunderstorms  Fog  Heavy snow  Heavy precipitations  Wind > 20 kt
SIGMETs :     Misc.  Thunderstorms  Icing  Turbulence  Mountain Waves  Volcanic Ashes






- Airport Elevation : 19 ft
- IATA code : BEB


EGPL - Benbecula

CURRENT METAR :
  • 180350Z AUTO 26021KT 9999 FEW021/// SCT047/// 05/02 Q0997

EXPIRED METARs :
  • 180320Z AUTO 26018KT 4700 -RA FEW009/// BKN023/// BKN034/// 05/02 Q0997 RERA
  • 180250Z AUTO 25019KT 9999 FEW031/// 05/02 Q0997
  • 180220Z AUTO 25026G39KT 9999 SCT029/// 05/01 Q0998
  • 180150Z AUTO 25025KT 9999 FEW032/// 05/01 Q0997
  • 180120Z AUTO 26030G42KT 6000 -RA SCT017/// 05/01 Q0998 RERA

TAF TAF EGPL
Valid from the 18 at 03:00 until the 18 at 12:00 UTC


180154Z 1803/1812 26025KT 9999 SCT016
TEMPO 1803/1812 27028G38KT 6000 SHRA BKN012CB
PROB40
TEMPO 1803/1812 3000 +SHRAGS
ATIS : +44 1870 604 818



MET'MAP, your aeronautical weather chart ! - Copyright ORBIFLY December 2007 - Disclaimer

ORBIFLY MET'MAP TEAM :

Programming & Development : Alexandra Zaïnal
Concept & original design : Baudouin d'Aumeries
Assistance for programming : Marc-Olivier Méhu
Technical & hardware support : Manuel Goepfert

Contact : metmap@orbifly.com




SOURCES & CREDITS :

   NOAA